Latest Weather Observations for Walgett

IDN60801

Issued at 3:03 pm EDT Sunday 7 February 2016 (issued every 30 minutes, with the page automatically refreshed every 10 minutes)

About weather observations | Map of weather stations | Latest weather observations for NSW | Other Formats
Station Details ID: 052088 Name: WALGETT AIRPORT AWS Lat: -30.04 Lon: 148.12 Height: 133.0 m
Data from the previous 72 hours. | See also: Recent months at Walgett
Date/Time
EDT
Temp
°C
App
Temp
°C
Dew
Point
Rel
Hum
%
Delta-T
°C
Wind Press
QNH
hPa
Press
MSL
hPa
Rain
since 9 am
mm
Dir
 
Spd
km/h
Gust
km/h
Spd
kts
Gust
kts
07/03:00pm 32.8 32.3 15.8 36 10.7 SSE 13 32 7 17 1012.4 1011.6 0.0
07/02:30pm 31.9 31.5 16.2 38 9.9 S 13 20 7 11 1012.9 1012.1 0.0
07/02:00pm 30.4 30.5 16.4 43 8.8 SE 11 19 6 10 1013.1 1012.3 0.0
07/01:30pm 29.7 29.2 15.8 43 8.6 S 13 24 7 13 1013.5 1012.7 0.0
07/01:00pm 30.5 30.9 17.2 44 8.5 SSE 11 20 6 11 1013.8 1013.0 0.0
07/12:30pm 29.8 30.4 16.9 45 8.2 WSW 9 17 5 9 1014.1 1013.3 0.0
07/12:00pm 29.5 30.2 18.0 50 7.4 SSW 11 20 6 11 1014.4 1013.6 0.0
07/11:30am 28.6 29.7 17.2 50 7.2 SSE 7 13 4 7 1014.9 1014.1 0.0
07/11:00am 28.1 29.5 17.3 52 6.8 SW 6 13 3 7 1015.2 1014.4 0.0
07/10:30am 26.8 27.9 16.7 54 6.3 S 6 13 3 7 1015.3 1014.5 0.0
07/10:00am 26.3 27.3 16.8 56 5.9 NE 7 19 4 10 1015.3 1014.5 0.0
07/09:30am 25.6 26.6 17.8 62 4.9 E 9 13 5 7 1015.3 1014.5 0.0
07/09:00am 24.6 24.6 17.3 64 4.6 E 13 17 7 9 1015.2 1014.4 0.0
07/08:30am 22.7 23.0 16.9 70 3.6 SE 11 15 6 8 1015.3 1014.5 0.0
07/08:00am 22.0 22.8 16.3 70 3.5 SSE 7 9 4 5 1015.0 1014.2 0.0
07/07:30am 20.8 21.4 15.8 73 3.0 S 7 9 4 5 1014.5 1013.7 0.0
07/07:00am 19.5 19.6 15.6 78 2.3 S 9 9 5 5 1014.2 1013.4 0.0
07/06:30am 19.8 20.4 15.2 75 2.7 S 6 7 3 4 1013.8 1013.0 0.0
07/06:00am 20.4 21.0 15.2 72 3.1 S 6 7 3 4 1013.4 1012.6 0.0
07/05:30am 20.9 21.3 15.2 70 3.4 E 7 11 4 6 1013.0 1012.2 0.0
07/05:00am 20.6 21.2 15.8 74 2.9 ENE 7 9 4 5 1012.9 1012.1 0.0
07/04:30am 20.2 22.0 15.6 75 2.7 CALM 0 0 0 0 1012.9 1012.1 0.0
07/04:00am 20.3 22.3 16.1 77 2.5 CALM 0 0 0 0 1012.8 1012.0 0.0
07/03:30am 20.8 21.8 15.4 71 3.2 SE 4 7 2 4 1012.9 1012.1 0.0
07/03:00am 21.3 21.9 15.4 69 3.5 ESE 6 7 3 4 1012.9 1012.1 0.0
07/02:30am 22.4 22.3 15.0 63 4.4 ESE 9 11 5 6 1013.0 1012.2 0.0
07/02:00am 22.6 22.2 15.2 63 4.4 SE 11 15 6 8 1013.1 1012.3 0.0
07/01:30am 23.5 23.6 15.5 60 4.8 SE 9 13 5 7 1013.3 1012.5 0.0
07/01:00am 23.6 23.5 16.1 62 4.6 SSE 11 13 6 7 1013.6 1012.8 0.0
07/12:30am 24.0 25.3 17.5 67 4.1 E 7 11 4 6 1013.5 1012.7 0.0
07/12:00am 24.4 25.5 17.9 67 4.1 NE 9 13 5 7 1013.4 1012.6 0.0
 
Date/Time
EDT
Temp
°C
App
Temp
°C
Dew
Point
Rel
Hum
%
Delta-T
°C
Wind Press
QNH
hPa
Press
MSL
hPa
Rain
since 9 am
mm
Dir
 
Spd
km/h
Gust
km/h
Spd
kts
Gust
kts
06/11:30pm 23.9 23.9 17.2 66 4.2 NE 13 15 7 8 1013.4 1012.6 0.0
06/11:00pm 25.8 25.5 16.4 56 5.8 NE 13 19 7 10 1013.1 1012.3 0.0
06/10:30pm 27.5 26.2 15.8 48 7.2 E 17 26 9 14 1012.8 1012.0 0.0
06/10:00pm 26.3 26.6 16.0 53 6.3 E 9 9 5 5 1012.1 1011.3 0.0
06/09:30pm 26.5 26.7 15.8 51 6.6 E 9 11 5 6 1011.8 1011.0 0.0
06/09:00pm 26.1 26.8 16.1 54 6.2 E 7 9 4 5 1011.5 1010.7 0.0
06/08:30pm 27.2 27.6 15.2 47 7.3 E 7 9 4 5 1011.2 1010.4 0.0
06/08:00pm 27.8 27.5 15.5 47 7.6 ESE 11 13 6 7 1010.7 1009.9 0.0
06/07:30pm 29.0 28.9 15.9 45 8.1 E 11 15 6 8 1010.6 1009.8 0.0
06/07:00pm 29.0 28.7 15.5 44 8.3 E 11 15 6 8 1010.2 1009.3 0.0
06/06:30pm 28.7 29.1 17.2 49 7.3 NNE 11 13 6 7 1010.1 1009.2 0.0
06/06:00pm 29.1 28.4 16.3 46 8.0 NE 15 20 8 11 1009.9 1009.0 0.0
06/05:30pm 29.6 28.3 15.7 43 8.6 NE 17 22 9 12 1009.8 1008.9 0.0
06/05:00pm 29.4 28.4 16.6 46 8.1 NNE 17 20 9 11 1010.1 1009.2 0.0
06/04:30pm 29.5 28.3 17.0 47 7.9 NNE 19 24 10 13 1010.3 1009.5 0.0
06/04:00pm 29.1 28.1 16.6 46 7.9 NE 17 20 9 11 1010.3 1009.5 0.0
06/03:30pm 29.7 28.5 16.1 43 8.5 NE 17 24 9 13 1010.6 1009.8 0.0
06/03:00pm 30.1 30.0 16.9 45 8.4 NE 13 20 7 11 1011.1 1010.3 0.0
06/02:30pm 29.4 27.9 16.2 44 8.2 NNE 19 22 10 12 1011.5 1010.7 0.0
06/02:00pm 30.0 28.7 16.8 45 8.3 NNE 19 26 10 14 1011.9 1011.1 0.0
06/01:30pm 29.2 28.6 16.7 46 7.9 E 15 26 8 14 1012.1 1011.3 0.0
06/01:00pm 29.7 29.5 17.5 48 7.8 ENE 15 30 8 16 1012.5 1011.7 0.0
06/12:30pm 28.1 26.9 15.1 45 7.9 ENE 15 22 8 12 1012.9 1012.1 0.0
06/12:00pm 28.0 26.5 16.3 49 7.3 E 19 24 10 13 1013.1 1012.3 0.0
06/11:30am 27.0 25.2 15.4 49 7.1 ENE 19 28 10 15 1013.5 1012.7 0.0
06/11:00am 26.2 24.2 15.6 52 6.5 E 20 32 11 17 1013.7 1012.9 0.0
06/10:30am 24.5 22.8 15.7 58 5.4 ESE 19 26 10 14 1013.8 1013.0 0.0
06/10:00am 23.9 22.2 15.7 60 5.0 E 19 26 10 14 1013.8 1013.0 0.0
06/09:30am 22.4 20.5 15.3 64 4.3 E 19 26 10 14 1013.8 1013.0 0.0
06/09:00am 21.8 19.7 14.7 64 4.2 ESE 19 26 10 14 1013.6 1012.8 0.0
06/08:30am 21.4 19.4 15.0 67 3.8 ESE 19 30 10 16 1013.5 1012.7 0.0
06/08:00am 21.0 18.7 14.6 67 3.8 ESE 20 32 11 17 1013.4 1012.6 0.0
06/07:30am 20.5 18.4 14.6 69 3.5 ESE 19 28 10 15 1013.0 1012.2 0.0
06/07:00am 20.3 18.5 14.4 69 3.5 ESE 17 24 9 13 1012.6 1011.8 0.0
06/06:30am 20.1 18.2 14.2 69 3.4 ESE 17 24 9 13 1012.0 1011.2 0.0
06/06:00am 20.1 17.8 14.2 69 3.4 E 19 26 10 14 1011.6 1010.8 0.0
06/05:30am 20.0 17.7 14.1 69 3.4 E 19 26 10 14 1011.3 1010.5 0.0
06/05:00am 20.1 17.8 14.0 68 3.5 ESE 19 28 10 15 1011.3 1010.5 0.0
06/04:30am 20.3 17.8 14.0 67 3.7 ESE 20 30 11 16 1011.1 1010.3 0.0
06/04:00am 20.6 18.3 14.0 66 3.8 ESE 19 24 10 13 1011.2 1010.4 0.0
06/03:30am 20.9 19.4 14.1 65 4.0 ESE 15 24 8 13 1011.3 1010.5 0.0
06/03:00am 21.2 18.9 14.1 64 4.2 E 19 26 10 14 1011.2 1010.4 0.0
06/02:30am 21.5 19.0 14.2 63 4.3 E 20 28 11 15 1011.3 1010.5 0.0
06/02:00am 21.7 18.4 14.1 62 4.5 E 24 39 13 21 1011.5 1010.7 0.0
06/01:30am 22.2 19.0 14.3 61 4.7 E 24 37 13 20 1011.3 1010.5 0.0
06/01:00am 22.3 19.2 14.4 61 4.7 E 24 35 13 19 1011.6 1010.8 0.0
06/12:30am 22.7 18.8 14.3 59 5.0 E 28 43 15 23 1011.7 1010.9 0.0
06/12:00am 23.3 19.4 14.3 57 5.3 E 28 43 15 23 1011.7 1010.9 0.0
 
Date/Time
EDT
Temp
°C
App
Temp
°C
Dew
Point
Rel
Hum
%
Delta-T
°C
Wind Press
QNH
hPa
Press
MSL
hPa
Rain
since 9 am
mm
Dir
 
Spd
km/h
Gust
km/h
Spd
kts
Gust
kts
05/11:30pm 24.0 21.7 14.7 56 5.6 ESE 20 30 11 16 1011.7 1010.9 0.0
05/11:00pm 24.4 21.4 14.8 55 5.8 ESE 24 43 13 23 1011.4 1010.6 0.0
05/10:30pm 25.5 22.5 14.9 52 6.4 ESE 24 33 13 18 1011.3 1010.5 0.0
05/10:00pm 26.0 24.2 15.4 52 6.5 ESE 19 28 10 15 1011.1 1010.3 0.0
05/09:30pm 26.6 23.4 15.3 50 6.9 ESE 26 39 14 21 1010.8 1010.0 0.0
05/09:00pm 27.1 25.1 15.5 49 7.1 ESE 20 33 11 18 1010.3 1009.5 0.0
05/08:30pm 27.9 25.4 15.2 46 7.8 ESE 22 32 12 17 1009.8 1008.9 0.0
05/08:00pm 28.7 26.5 14.9 43 8.4 ESE 20 30 11 16 1009.2 1008.4 0.0
05/07:30pm 29.5 26.8 14.5 40 9.1 SE 22 33 12 18 1008.8 1008.0 0.0
05/07:00pm 30.3 28.1 14.8 39 9.5 ESE 20 33 11 18 1008.5 1007.7 0.0
05/06:30pm 30.9 28.5 13.7 35 10.4 ESE 19 32 10 17 1008.2 1007.4 0.0
05/06:00pm 30.8 28.1 13.6 35 10.4 SE 20 35 11 19 1008.1 1007.3 0.0
05/05:30pm 31.2 28.1 13.5 34 10.7 SE 22 33 12 18 1008.1 1007.3 0.0
05/05:00pm 31.5 28.6 15.0 36 10.2 ESE 24 35 13 19 1008.2 1007.4 0.0
05/04:30pm 31.0 28.2 14.2 36 10.2 ESE 22 32 12 17 1008.4 1007.6 0.0
05/04:00pm 30.8 28.0 14.4 36 10.0 ESE 22 37 12 20 1008.7 1007.9 0.0
05/03:30pm 30.6 27.9 15.5 40 9.4 ESE 24 35 13 19 1009.1 1008.3 0.0
05/03:00pm 30.2 28.4 15.5 41 9.1 E 19 32 10 17 1009.6 1008.7 0.0
05/02:30pm 30.8 30.0 17.1 43 8.7 E 17 30 9 16 1010.0 1009.1 0.0
05/02:00pm 30.1 28.7 16.5 44 8.6 ESE 19 32 10 17 1010.6 1009.8 0.0
05/01:30pm 29.2 27.6 16.0 44 8.2 E 19 30 10 16 1010.9 1010.1 0.0
05/01:00pm 28.8 27.5 16.7 48 7.6 ESE 19 35 10 19 1011.1 1010.3 0.0
05/12:30pm 28.1 26.5 16.1 48 7.4 E 19 35 10 19 1011.6 1010.8 0.0
05/12:00pm 27.6 26.2 16.9 52 6.7 ESE 20 32 11 17 1011.9 1011.1 0.0
05/11:30am 26.6 24.8 15.9 51 6.6 E 20 30 11 16 1012.0 1011.2 0.0
05/11:00am 25.9 23.7 15.9 54 6.1 E 22 33 12 18 1012.0 1011.2 0.0
05/10:30am 25.1 22.7 15.4 55 5.9 E 22 30 12 16 1012.1 1011.3 0.0
05/10:00am 24.5 22.2 15.7 58 5.4 ESE 22 37 12 20 1012.2 1011.4 0.0
05/09:30am 23.7 21.3 15.5 60 5.0 ESE 22 32 12 17 1012.0 1011.2 0.0
05/09:00am 22.8 20.2 14.9 61 4.7 ESE 22 32 12 17 1012.0 1011.2 23.4
05/08:30am 21.7 18.4 14.1 62 4.5 ESE 24 39 13 21 1011.8 1011.0 23.4
05/08:00am 21.0 18.8 14.4 66 3.9 ESE 19 28 10 15 1011.5 1010.7 23.4
05/07:30am 19.8 17.5 14.0 69 3.4 SE 19 24 10 13 1011.1 1010.3 23.4
05/07:00am 19.1 16.7 13.9 72 3.0 SE 19 24 10 13 1010.8 1010.0 23.4
05/06:30am 19.0 17.0 13.8 72 3.0 SE 17 24 9 13 1010.4 1009.6 23.4
05/06:00am 19.4 17.4 14.0 71 3.1 SE 17 24 9 13 1009.9 1009.0 23.4
05/05:30am 19.5 18.4 14.3 72 3.0 ESE 13 20 7 11 1009.7 1008.8 23.4
05/05:00am 19.8 18.4 14.4 71 3.2 SE 15 19 8 10 1009.5 1008.6 23.4
05/04:30am 20.4 18.2 14.3 68 3.6 ESE 19 28 10 15 1009.2 1008.4 23.4
05/04:00am 20.9 18.5 14.5 67 3.8 ESE 20 26 11 14 1009.1 1008.3 23.4
05/03:30am 21.2 18.9 14.6 66 3.9 ESE 20 28 11 15 1009.1 1008.3 23.4
05/03:00am 21.5 19.5 14.9 66 3.9 ESE 19 24 10 13 1009.2 1008.4 23.4
05/02:30am 21.6 19.4 15.0 66 3.9 ESE 20 28 11 15 1009.3 1008.5 23.4
05/02:00am 22.0 19.5 15.1 65 4.1 ESE 22 30 12 16 1009.3 1008.5 23.4
05/01:30am 22.4 20.0 15.3 64 4.3 ESE 22 33 12 18 1009.5 1008.6 23.4
05/01:00am 22.8 20.5 15.6 64 4.4 ESE 22 32 12 17 1009.6 1008.7 23.4
05/12:30am 22.8 21.0 15.6 64 4.3 ESE 19 28 10 15 1009.5 1008.6 23.4
05/12:00am 23.2 20.1 15.5 62 4.7 ESE 26 46 14 25 1009.5 1008.6 23.4
 
Date/Time
EDT
Temp
°C
App
Temp
°C
Dew
Point
Rel
Hum
%
Delta-T
°C
Wind Press
QNH
hPa
Press
MSL
hPa
Rain
since 9 am
mm
Dir
 
Spd
km/h
Gust
km/h
Spd
kts
Gust
kts
04/11:56pm 23.4 19.9 15.5 61 4.8 ESE 28 46 15 25 1009.5 1008.6 23.4
04/11:30pm 23.6 21.8 15.9 62 4.7 ESE 20 28 11 15 1009.2 1008.4 23.4
04/11:00pm 24.0 21.4 16.0 61 4.9 ESE 24 41 13 22 1008.9 1008.1 23.4
04/10:30pm 24.5 22.1 16.5 61 4.9 ESE 24 33 13 18 1008.8 1008.0 23.4
04/10:00pm 25.2 22.4 16.4 58 5.4 ESE 26 37 14 20 1008.3 1007.5 23.4
04/09:30pm 26.3 24.2 17.1 57 5.8 ESE 24 37 13 20 1007.7 1006.9 23.4
04/09:00pm 26.8 24.8 17.3 56 6.0 ESE 24 35 13 19 1007.2 1006.4 23.4
04/08:30pm 27.5 26.0 17.7 55 6.2 ESE 22 37 12 20 1006.7 1005.9 23.4
04/08:00pm 28.3 26.6 18.1 54 6.5 ESE 24 35 13 19 1006.0 1005.2 23.4
04/07:30pm 29.0 27.3 18.1 51 7.0 ESE 24 35 13 19 1005.3 1004.5 23.4
04/07:00pm 30.2 28.8 18.9 50 7.4 SE 24 39 13 21 1004.6 1003.8 23.4
04/06:30pm 30.0 29.5 19.1 52 7.1 SE 20 32 11 17 1004.1 1003.3 23.4
04/06:00pm 30.6 30.4 19.3 51 7.4 SE 19 28 10 15 1003.8 1003.0 23.4
04/05:30pm 31.1 34.8 23.2 63 5.5 ENE 9 13 5 7 1003.6 1002.8 23.4
04/05:00pm 28.7 33.2 24.0 76 3.3 N 7 9 4 5 1003.9 1003.1 23.2
04/04:30pm 26.4 29.0 22.7 80 2.5 NNE 13 17 7 9 1004.1 1003.3 23.2
04/04:06pm 24.8 27.1 22.7 88 1.4 ENE 15 20 8 11 1004.3 1003.5 23.2
04/04:03pm 24.5 26.3 21.8 85 1.8 ENE 15 20 8 11 1004.4 1003.6 23.2
04/04:00pm 24.8 26.8 22.3 86 1.7 E 15 19 8 10 1004.5 1003.7 23.2
04/03:54pm 24.3 26.9 22.0 87 1.5 SE 11 17 6 9 1004.8 1004.0 23.2
04/03:50pm 23.8 26.8 21.9 89 1.3 SSE 9 17 5 9 1004.9 1004.1 23.2
04/03:36pm 22.7 21.5 17.6 73 3.2 SW 20 54 11 29 1005.2 1004.4 19.4
04/03:30pm 21.5 17.9 18.5 83 1.9 SSW 35 59 19 32 1006.4 1005.6 13.4
04/03:28pm 21.0 16.2 18.4 85 1.6 SSW 41 59 22 32 1006.4 1005.6 10.4
04/03:27pm 21.0 15.7 18.2 84 1.8 SW 43 59 23 32 1006.4 1005.6 8.8
04/03:21pm 25.1 21.2 20.4 75 3.1 SW 41 59 22 32 1005.5 1004.7 1.0
04/03:20pm 25.4 22.0 20.6 75 3.2 SW 39 50 21 27 1005.4 1004.6 0.8
04/03:09pm 28.5 27.0 18.6 55 6.4 S 24 48 13 26 1004.7 1003.9 0.0
04/03:07pm 29.0 28.5 18.7 53 6.7 SSE 19 39 10 21 1004.8 1004.0 0.0

Other Formats:

Comma delimited format used in spreadsheet applications
http://www.bom.gov.au/fwo/IDN60801/IDN60801.95715.axf

JavaScript Object Notation format (JSON) in row-major order
http://www.bom.gov.au/fwo/IDN60801/IDN60801.95715.json